sensor_id;sensor_type;location;lat;lon;timestamp;P1;durP1;ratioP1;P2;durP2;ratioP2
18505;SDS011;9382;53.242;10.438;2023-04-25T00:01:19;14.47;;;8.37;;
18505;SDS011;9382;53.242;10.438;2023-04-25T00:03:47;13.60;;;8.23;;
18505;SDS011;9382;53.242;10.438;2023-04-25T00:06:14;12.93;;;8.50;;
18505;SDS011;9382;53.242;10.438;2023-04-25T00:08:42;13.17;;;8.50;;
18505;SDS011;9382;53.242;10.438;2023-04-25T00:11:10;12.60;;;8.07;;
18505;SDS011;9382;53.242;10.438;2023-04-25T00:13:37;10.80;;;7.57;;
18505;SDS011;9382;53.242;10.438;2023-04-25T00:16:06;10.63;;;7.73;;
18505;SDS011;9382;53.242;10.438;2023-04-25T00:18:33;13.03;;;8.27;;
18505;SDS011;9382;53.242;10.438;2023-04-25T00:21:00;10.60;;;7.53;;
18505;SDS011;9382;53.242;10.438;2023-04-25T00:23:27;14.87;;;7.80;;
18505;SDS011;9382;53.242;10.438;2023-04-25T00:25:54;11.67;;;7.73;;
18505;SDS011;9382;53.242;10.438;2023-04-25T00:28:22;12.30;;;7.87;;
18505;SDS011;9382;53.242;10.438;2023-04-25T00:30:49;12.47;;;7.90;;
18505;SDS011;9382;53.242;10.438;2023-04-25T00:33:15;13.50;;;7.97;;
18505;SDS011;9382;53.242;10.438;2023-04-25T00:35:42;10.90;;;8.30;;
18505;SDS011;9382;53.242;10.438;2023-04-25T00:38:09;11.57;;;7.90;;
18505;SDS011;9382;53.242;10.438;2023-04-25T00:40:35;12.30;;;7.67;;
18505;SDS011;9382;53.242;10.438;2023-04-25T00:43:02;14.07;;;8.47;;
18505;SDS011;9382;53.242;10.438;2023-04-25T00:45:30;12.80;;;8.43;;
18505;SDS011;9382;53.242;10.438;2023-04-25T00:47:57;15.03;;;9.23;;
18505;SDS011;9382;53.242;10.438;2023-04-25T00:50:24;15.03;;;9.30;;
18505;SDS011;9382;53.242;10.438;2023-04-25T00:52:51;15.37;;;9.90;;
18505;SDS011;9382;53.242;10.438;2023-04-25T00:55:18;13.40;;;9.27;;
18505;SDS011;9382;53.242;10.438;2023-04-25T00:57:46;14.37;;;9.53;;
18505;SDS011;9382;53.242;10.438;2023-04-25T01:00:13;14.27;;;9.37;;
18505;SDS011;9382;53.242;10.438;2023-04-25T01:02:42;16.13;;;10.20;;
18505;SDS011;9382;53.242;10.438;2023-04-25T01:05:10;15.20;;;11.40;;
18505;SDS011;9382;53.242;10.438;2023-04-25T01:07:38;18.23;;;10.07;;
18505;SDS011;9382;53.242;10.438;2023-04-25T01:10:06;18.50;;;10.90;;
18505;SDS011;9382;53.242;10.438;2023-04-25T01:12:33;16.83;;;10.33;;
18505;SDS011;9382;53.242;10.438;2023-04-25T01:15:00;17.13;;;10.63;;
18505;SDS011;9382;53.242;10.438;2023-04-25T01:17:27;15.80;;;11.07;;
18505;SDS011;9382;53.242;10.438;2023-04-25T01:19:56;12.73;;;10.13;;
18505;SDS011;9382;53.242;10.438;2023-04-25T01:22:24;17.77;;;10.07;;
18505;SDS011;9382;53.242;10.438;2023-04-25T01:24:51;15.60;;;9.47;;
18505;SDS011;9382;53.242;10.438;2023-04-25T01:27:18;17.53;;;10.67;;
18505;SDS011;9382;53.242;10.438;2023-04-25T01:29:45;15.93;;;9.17;;
18505;SDS011;9382;53.242;10.438;2023-04-25T01:32:12;16.63;;;8.97;;
18505;SDS011;9382;53.242;10.438;2023-04-25T01:34:40;19.63;;;8.77;;
18505;SDS011;9382;53.242;10.438;2023-04-25T01:37:06;17.40;;;7.90;;
18505;SDS011;9382;53.242;10.438;2023-04-25T01:39:34;19.43;;;7.33;;
18505;SDS011;9382;53.242;10.438;2023-04-25T01:42:01;16.10;;;6.57;;
18505;SDS011;9382;53.242;10.438;2023-04-25T01:44:28;17.20;;;6.87;;
18505;SDS011;9382;53.242;10.438;2023-04-25T01:46:55;18.60;;;6.37;;
18505;SDS011;9382;53.242;10.438;2023-04-25T01:49:22;19.17;;;6.57;;
18505;SDS011;9382;53.242;10.438;2023-04-25T01:51:49;16.60;;;6.30;;
18505;SDS011;9382;53.242;10.438;2023-04-25T01:54:16;22.83;;;5.90;;
18505;SDS011;9382;53.242;10.438;2023-04-25T01:56:49;22.07;;;6.10;;
18505;SDS011;9382;53.242;10.438;2023-04-25T01:59:16;22.17;;;6.27;;
18505;SDS011;9382;53.242;10.438;2023-04-25T02:01:44;25.03;;;6.53;;
18505;SDS011;9382;53.242;10.438;2023-04-25T02:04:11;23.40;;;6.50;;
18505;SDS011;9382;53.242;10.438;2023-04-25T02:06:38;19.97;;;6.47;;
18505;SDS011;9382;53.242;10.438;2023-04-25T02:09:04;23.43;;;6.90;;
18505;SDS011;9382;53.242;10.438;2023-04-25T02:11:31;21.70;;;6.20;;
18505;SDS011;9382;53.242;10.438;2023-04-25T02:13:59;26.43;;;6.57;;
18505;SDS011;9382;53.242;10.438;2023-04-25T02:16:26;25.90;;;6.17;;
18505;SDS011;9382;53.242;10.438;2023-04-25T02:18:53;23.60;;;5.73;;
18505;SDS011;9382;53.242;10.438;2023-04-25T02:21:19;28.80;;;6.60;;
18505;SDS011;9382;53.242;10.438;2023-04-25T02:23:46;23.33;;;6.37;;
18505;SDS011;9382;53.242;10.438;2023-04-25T02:26:14;25.30;;;6.20;;
18505;SDS011;9382;53.242;10.438;2023-04-25T02:28:41;28.03;;;6.27;;
18505;SDS011;9382;53.242;10.438;2023-04-25T02:31:09;28.13;;;6.20;;
18505;SDS011;9382;53.242;10.438;2023-04-25T02:33:35;23.73;;;7.00;;
18505;SDS011;9382;53.242;10.438;2023-04-25T02:36:02;21.53;;;6.17;;
18505;SDS011;9382;53.242;10.438;2023-04-25T02:38:29;32.43;;;6.63;;
18505;SDS011;9382;53.242;10.438;2023-04-25T02:40:56;28.90;;;6.13;;
18505;SDS011;9382;53.242;10.438;2023-04-25T02:43:23;22.80;;;6.83;;
18505;SDS011;9382;53.242;10.438;2023-04-25T02:45:50;29.70;;;6.27;;
18505;SDS011;9382;53.242;10.438;2023-04-25T02:48:18;27.00;;;7.20;;
18505;SDS011;9382;53.242;10.438;2023-04-25T02:50:44;23.13;;;5.80;;
18505;SDS011;9382;53.242;10.438;2023-04-25T02:53:11;31.57;;;6.90;;
18505;SDS011;9382;53.242;10.438;2023-04-25T02:55:38;26.07;;;6.57;;
18505;SDS011;9382;53.242;10.438;2023-04-25T02:58:05;31.80;;;7.53;;
18505;SDS011;9382;53.242;10.438;2023-04-25T03:00:31;23.53;;;5.60;;
18505;SDS011;9382;53.242;10.438;2023-04-25T03:02:58;22.80;;;7.17;;
18505;SDS011;9382;53.242;10.438;2023-04-25T03:05:26;26.07;;;7.13;;
18505;SDS011;9382;53.242;10.438;2023-04-25T03:07:54;30.27;;;7.07;;
18505;SDS011;9382;53.242;10.438;2023-04-25T03:10:21;29.57;;;6.90;;
18505;SDS011;9382;53.242;10.438;2023-04-25T03:12:47;27.13;;;6.43;;
18505;SDS011;9382;53.242;10.438;2023-04-25T03:15:14;26.17;;;6.73;;
18505;SDS011;9382;53.242;10.438;2023-04-25T03:17:41;27.73;;;6.33;;
18505;SDS011;9382;53.242;10.438;2023-04-25T03:20:08;31.13;;;6.87;;
18505;SDS011;9382;53.242;10.438;2023-04-25T03:22:38;25.57;;;6.73;;
18505;SDS011;9382;53.242;10.438;2023-04-25T03:25:05;22.77;;;5.73;;
18505;SDS011;9382;53.242;10.438;2023-04-25T03:27:32;27.70;;;6.93;;
18505;SDS011;9382;53.242;10.438;2023-04-25T03:29:59;21.73;;;6.83;;
18505;SDS011;9382;53.242;10.438;2023-04-25T03:32:26;30.93;;;6.50;;
18505;SDS011;9382;53.242;10.438;2023-04-25T03:34:52;26.30;;;6.20;;
18505;SDS011;9382;53.242;10.438;2023-04-25T03:37:20;28.17;;;6.60;;
18505;SDS011;9382;53.242;10.438;2023-04-25T03:39:48;28.73;;;6.60;;
18505;SDS011;9382;53.242;10.438;2023-04-25T03:42:14;30.50;;;6.40;;
18505;SDS011;9382;53.242;10.438;2023-04-25T03:44:41;35.40;;;7.20;;
18505;SDS011;9382;53.242;10.438;2023-04-25T03:47:08;25.03;;;5.90;;
18505;SDS011;9382;53.242;10.438;2023-04-25T03:49:35;33.93;;;7.33;;
18505;SDS011;9382;53.242;10.438;2023-04-25T03:52:02;27.57;;;6.30;;
18505;SDS011;9382;53.242;10.438;2023-04-25T03:54:29;20.07;;;5.53;;
18505;SDS011;9382;53.242;10.438;2023-04-25T03:56:57;24.27;;;5.60;;
18505;SDS011;9382;53.242;10.438;2023-04-25T03:59:23;30.33;;;6.20;;
18505;SDS011;9382;53.242;10.438;2023-04-25T04:01:51;28.93;;;6.37;;
18505;SDS011;9382;53.242;10.438;2023-04-25T04:04:17;22.33;;;6.67;;
18505;SDS011;9382;53.242;10.438;2023-04-25T04:06:44;23.23;;;6.00;;
18505;SDS011;9382;53.242;10.438;2023-04-25T04:09:11;28.20;;;5.93;;
18505;SDS011;9382;53.242;10.438;2023-04-25T04:11:38;26.40;;;6.03;;
18505;SDS011;9382;53.242;10.438;2023-04-25T04:14:07;34.80;;;6.10;;
18505;SDS011;9382;53.242;10.438;2023-04-25T04:16:35;26.23;;;6.27;;
18505;SDS011;9382;53.242;10.438;2023-04-25T04:19:01;26.73;;;6.27;;
18505;SDS011;9382;53.242;10.438;2023-04-25T04:21:29;24.93;;;6.17;;
18505;SDS011;9382;53.242;10.438;2023-04-25T04:23:56;21.67;;;5.70;;
18505;SDS011;9382;53.242;10.438;2023-04-25T04:26:24;29.50;;;6.60;;
18505;SDS011;9382;53.242;10.438;2023-04-25T04:28:52;25.83;;;5.77;;
18505;SDS011;9382;53.242;10.438;2023-04-25T04:31:20;28.47;;;6.10;;
18505;SDS011;9382;53.242;10.438;2023-04-25T04:33:47;26.50;;;6.60;;
18505;SDS011;9382;53.242;10.438;2023-04-25T04:36:14;34.93;;;6.40;;
18505;SDS011;9382;53.242;10.438;2023-04-25T04:38:44;29.93;;;6.00;;
18505;SDS011;9382;53.242;10.438;2023-04-25T04:41:11;26.90;;;5.70;;
18505;SDS011;9382;53.242;10.438;2023-04-25T04:43:38;27.53;;;5.53;;
18505;SDS011;9382;53.242;10.438;2023-04-25T04:46:05;25.60;;;6.60;;
18505;SDS011;9382;53.242;10.438;2023-04-25T04:48:33;30.13;;;5.57;;
18505;SDS011;9382;53.242;10.438;2023-04-25T04:51:00;27.73;;;5.90;;
18505;SDS011;9382;53.242;10.438;2023-04-25T04:53:27;33.87;;;6.90;;
18505;SDS011;9382;53.242;10.438;2023-04-25T04:55:53;29.70;;;5.73;;
18505;SDS011;9382;53.242;10.438;2023-04-25T04:58:21;21.17;;;5.30;;
18505;SDS011;9382;53.242;10.438;2023-04-25T05:00:48;23.67;;;5.67;;
18505;SDS011;9382;53.242;10.438;2023-04-25T05:03:14;34.43;;;7.00;;
18505;SDS011;9382;53.242;10.438;2023-04-25T05:05:43;21.00;;;5.47;;
18505;SDS011;9382;53.242;10.438;2023-04-25T05:08:10;23.37;;;5.30;;
18505;SDS011;9382;53.242;10.438;2023-04-25T05:10:37;16.10;;;5.30;;
18505;SDS011;9382;53.242;10.438;2023-04-25T05:13:04;21.13;;;5.67;;
18505;SDS011;9382;53.242;10.438;2023-04-25T05:15:31;25.53;;;6.07;;
18505;SDS011;9382;53.242;10.438;2023-04-25T05:17:57;25.40;;;6.00;;
18505;SDS011;9382;53.242;10.438;2023-04-25T05:20:24;19.23;;;5.00;;
18505;SDS011;9382;53.242;10.438;2023-04-25T05:22:52;21.00;;;5.63;;
18505;SDS011;9382;53.242;10.438;2023-04-25T05:25:19;18.20;;;5.30;;
18505;SDS011;9382;53.242;10.438;2023-04-25T05:27:46;21.23;;;5.07;;
18505;SDS011;9382;53.242;10.438;2023-04-25T05:30:13;23.40;;;5.43;;
18505;SDS011;9382;53.242;10.438;2023-04-25T05:32:39;26.70;;;5.07;;
18505;SDS011;9382;53.242;10.438;2023-04-25T05:35:07;19.07;;;5.23;;
18505;SDS011;9382;53.242;10.438;2023-04-25T05:37:34;18.43;;;4.97;;
18505;SDS011;9382;53.242;10.438;2023-04-25T05:40:03;30.20;;;5.70;;
18505;SDS011;9382;53.242;10.438;2023-04-25T05:42:31;17.30;;;5.00;;
18505;SDS011;9382;53.242;10.438;2023-04-25T05:44:58;22.07;;;5.27;;
18505;SDS011;9382;53.242;10.438;2023-04-25T05:47:25;29.60;;;5.43;;
18505;SDS011;9382;53.242;10.438;2023-04-25T05:49:52;22.87;;;5.43;;
18505;SDS011;9382;53.242;10.438;2023-04-25T05:52:18;23.03;;;5.27;;
18505;SDS011;9382;53.242;10.438;2023-04-25T05:54:45;19.83;;;4.53;;
18505;SDS011;9382;53.242;10.438;2023-04-25T05:57:19;21.00;;;4.77;;
18505;SDS011;9382;53.242;10.438;2023-04-25T05:59:47;20.97;;;5.00;;
18505;SDS011;9382;53.242;10.438;2023-04-25T06:02:13;23.50;;;5.20;;
18505;SDS011;9382;53.242;10.438;2023-04-25T06:04:40;19.40;;;4.63;;
18505;SDS011;9382;53.242;10.438;2023-04-25T06:07:07;20.73;;;5.07;;
18505;SDS011;9382;53.242;10.438;2023-04-25T06:09:34;19.43;;;5.03;;
18505;SDS011;9382;53.242;10.438;2023-04-25T06:12:00;20.00;;;4.77;;
18505;SDS011;9382;53.242;10.438;2023-04-25T06:14:29;16.37;;;4.80;;
18505;SDS011;9382;53.242;10.438;2023-04-25T06:16:56;22.23;;;4.97;;
18505;SDS011;9382;53.242;10.438;2023-04-25T06:19:23;19.40;;;4.70;;
18505;SDS011;9382;53.242;10.438;2023-04-25T06:21:50;16.13;;;4.63;;
18505;SDS011;9382;53.242;10.438;2023-04-25T06:24:16;17.87;;;4.33;;
18505;SDS011;9382;53.242;10.438;2023-04-25T06:26:43;19.67;;;4.50;;
18505;SDS011;9382;53.242;10.438;2023-04-25T06:29:10;14.07;;;4.60;;
18505;SDS011;9382;53.242;10.438;2023-04-25T06:31:38;17.43;;;4.40;;
18505;SDS011;9382;53.242;10.438;2023-04-25T06:34:04;19.37;;;4.33;;
18505;SDS011;9382;53.242;10.438;2023-04-25T06:36:31;15.53;;;4.13;;
18505;SDS011;9382;53.242;10.438;2023-04-25T06:38:58;18.87;;;4.50;;
18505;SDS011;9382;53.242;10.438;2023-04-25T06:41:25;15.90;;;4.43;;
18505;SDS011;9382;53.242;10.438;2023-04-25T06:43:51;20.30;;;4.87;;
18505;SDS011;9382;53.242;10.438;2023-04-25T06:46:18;20.63;;;4.17;;
18505;SDS011;9382;53.242;10.438;2023-04-25T06:48:46;13.37;;;4.30;;
18505;SDS011;9382;53.242;10.438;2023-04-25T06:51:13;15.27;;;4.20;;
18505;SDS011;9382;53.242;10.438;2023-04-25T06:53:40;20.00;;;4.33;;
18505;SDS011;9382;53.242;10.438;2023-04-25T06:56:06;18.77;;;3.97;;
18505;SDS011;9382;53.242;10.438;2023-04-25T06:58:33;14.93;;;4.00;;
18505;SDS011;9382;53.242;10.438;2023-04-25T07:01:00;20.90;;;4.37;;
18505;SDS011;9382;53.242;10.438;2023-04-25T07:03:27;21.17;;;4.77;;
18505;SDS011;9382;53.242;10.438;2023-04-25T07:05:55;19.03;;;4.70;;
18505;SDS011;9382;53.242;10.438;2023-04-25T07:08:21;14.33;;;4.17;;
18505;SDS011;9382;53.242;10.438;2023-04-25T07:10:48;16.73;;;4.13;;
18505;SDS011;9382;53.242;10.438;2023-04-25T07:13:15;19.27;;;4.30;;
18505;SDS011;9382;53.242;10.438;2023-04-25T07:15:42;14.93;;;4.40;;
18505;SDS011;9382;53.242;10.438;2023-04-25T07:18:10;16.57;;;4.10;;
18505;SDS011;9382;53.242;10.438;2023-04-25T07:20:36;17.90;;;4.40;;
18505;SDS011;9382;53.242;10.438;2023-04-25T07:23:05;17.20;;;4.23;;
18505;SDS011;9382;53.242;10.438;2023-04-25T07:25:31;18.93;;;4.60;;
18505;SDS011;9382;53.242;10.438;2023-04-25T07:27:58;19.13;;;4.57;;
18505;SDS011;9382;53.242;10.438;2023-04-25T07:30:25;27.77;;;4.63;;
18505;SDS011;9382;53.242;10.438;2023-04-25T07:32:51;13.03;;;4.00;;
18505;SDS011;9382;53.242;10.438;2023-04-25T07:35:18;11.87;;;3.63;;
18505;SDS011;9382;53.242;10.438;2023-04-25T07:37:45;15.90;;;4.00;;
18505;SDS011;9382;53.242;10.438;2023-04-25T07:40:13;15.50;;;3.80;;
18505;SDS011;9382;53.242;10.438;2023-04-25T07:42:41;13.77;;;3.93;;
18505;SDS011;9382;53.242;10.438;2023-04-25T07:45:08;14.87;;;4.33;;
18505;SDS011;9382;53.242;10.438;2023-04-25T07:47:35;16.07;;;4.60;;
18505;SDS011;9382;53.242;10.438;2023-04-25T07:50:03;17.03;;;4.20;;
18505;SDS011;9382;53.242;10.438;2023-04-25T07:52:30;15.77;;;4.20;;
18505;SDS011;9382;53.242;10.438;2023-04-25T07:54:57;14.33;;;4.20;;
18505;SDS011;9382;53.242;10.438;2023-04-25T07:57:26;12.93;;;3.90;;
18505;SDS011;9382;53.242;10.438;2023-04-25T07:59:53;12.57;;;3.60;;
18505;SDS011;9382;53.242;10.438;2023-04-25T08:02:20;9.00;;;3.20;;
18505;SDS011;9382;53.242;10.438;2023-04-25T08:04:47;16.50;;;3.73;;
18505;SDS011;9382;53.242;10.438;2023-04-25T08:07:14;15.00;;;4.00;;
18505;SDS011;9382;53.242;10.438;2023-04-25T08:09:41;9.47;;;3.37;;
18505;SDS011;9382;53.242;10.438;2023-04-25T08:12:08;8.43;;;2.90;;
18505;SDS011;9382;53.242;10.438;2023-04-25T08:14:36;10.10;;;3.30;;
18505;SDS011;9382;53.242;10.438;2023-04-25T08:17:04;10.57;;;3.57;;
18505;SDS011;9382;53.242;10.438;2023-04-25T08:19:31;16.10;;;3.90;;
18505;SDS011;9382;53.242;10.438;2023-04-25T08:21:58;13.53;;;3.30;;
18505;SDS011;9382;53.242;10.438;2023-04-25T08:24:24;11.60;;;3.13;;
18505;SDS011;9382;53.242;10.438;2023-04-25T08:26:51;10.70;;;3.20;;
18505;SDS011;9382;53.242;10.438;2023-04-25T08:29:18;12.03;;;3.47;;
18505;SDS011;9382;53.242;10.438;2023-04-25T08:31:47;9.30;;;2.83;;
18505;SDS011;9382;53.242;10.438;2023-04-25T08:34:13;11.17;;;3.27;;
18505;SDS011;9382;53.242;10.438;2023-04-25T08:36:40;8.53;;;3.00;;
18505;SDS011;9382;53.242;10.438;2023-04-25T08:39:07;13.07;;;2.93;;
18505;SDS011;9382;53.242;10.438;2023-04-25T08:41:34;9.00;;;3.20;;
18505;SDS011;9382;53.242;10.438;2023-04-25T08:44:02;8.23;;;2.90;;
18505;SDS011;9382;53.242;10.438;2023-04-25T08:46:29;8.47;;;2.77;;
18505;SDS011;9382;53.242;10.438;2023-04-25T08:48:59;7.07;;;2.50;;
18505;SDS011;9382;53.242;10.438;2023-04-25T08:51:27;5.97;;;2.60;;
18505;SDS011;9382;53.242;10.438;2023-04-25T08:54:05;7.97;;;2.67;;
18505;SDS011;9382;53.242;10.438;2023-04-25T08:56:35;7.07;;;2.53;;
18505;SDS011;9382;53.242;10.438;2023-04-25T08:59:02;8.83;;;3.07;;
18505;SDS011;9382;53.242;10.438;2023-04-25T09:01:29;11.30;;;3.07;;
18505;SDS011;9382;53.242;10.438;2023-04-25T09:03:56;9.40;;;2.83;;
18505;SDS011;9382;53.242;10.438;2023-04-25T09:06:25;9.57;;;2.57;;
18505;SDS011;9382;53.242;10.438;2023-04-25T09:08:52;11.47;;;3.07;;
18505;SDS011;9382;53.242;10.438;2023-04-25T09:11:19;8.47;;;2.87;;
18505;SDS011;9382;53.242;10.438;2023-04-25T09:13:46;11.93;;;2.87;;
18505;SDS011;9382;53.242;10.438;2023-04-25T09:16:12;6.63;;;2.23;;
18505;SDS011;9382;53.242;10.438;2023-04-25T09:18:42;7.10;;;2.37;;
18505;SDS011;9382;53.242;10.438;2023-04-25T09:21:11;10.17;;;2.60;;
18505;SDS011;9382;53.242;10.438;2023-04-25T09:23:41;10.07;;;3.03;;
18505;SDS011;9382;53.242;10.438;2023-04-25T09:26:10;14.03;;;2.90;;
18505;SDS011;9382;53.242;10.438;2023-04-25T09:28:40;10.60;;;2.70;;
18505;SDS011;9382;53.242;10.438;2023-04-25T09:31:09;8.20;;;2.80;;
18505;SDS011;9382;53.242;10.438;2023-04-25T09:33:37;6.90;;;2.23;;
18505;SDS011;9382;53.242;10.438;2023-04-25T09:36:04;11.73;;;3.03;;
18505;SDS011;9382;53.242;10.438;2023-04-25T09:38:39;11.10;;;2.60;;
18505;SDS011;9382;53.242;10.438;2023-04-25T09:41:07;6.23;;;2.93;;
18505;SDS011;9382;53.242;10.438;2023-04-25T09:43:33;6.53;;;1.77;;
18505;SDS011;9382;53.242;10.438;2023-04-25T09:46:00;6.20;;;1.90;;
18505;SDS011;9382;53.242;10.438;2023-04-25T09:48:27;6.37;;;1.83;;
18505;SDS011;9382;53.242;10.438;2023-04-25T09:51:05;9.83;;;2.37;;
18505;SDS011;9382;53.242;10.438;2023-04-25T09:53:37;6.43;;;2.00;;
18505;SDS011;9382;53.242;10.438;2023-04-25T09:56:06;5.23;;;1.83;;
18505;SDS011;9382;53.242;10.438;2023-04-25T09:58:34;7.40;;;2.13;;
18505;SDS011;9382;53.242;10.438;2023-04-25T10:01:03;6.63;;;1.97;;
18505;SDS011;9382;53.242;10.438;2023-04-25T10:03:32;7.17;;;2.23;;
18505;SDS011;9382;53.242;10.438;2023-04-25T10:06:00;3.53;;;1.60;;
18505;SDS011;9382;53.242;10.438;2023-04-25T10:08:29;2.40;;;1.77;;
18505;SDS011;9382;53.242;10.438;2023-04-25T10:10:59;7.13;;;2.10;;
18505;SDS011;9382;53.242;10.438;2023-04-25T10:13:28;7.77;;;2.10;;
18505;SDS011;9382;53.242;10.438;2023-04-25T10:15:55;5.67;;;1.77;;
18505;SDS011;9382;53.242;10.438;2023-04-25T10:18:24;6.97;;;2.10;;
18505;SDS011;9382;53.242;10.438;2023-04-25T10:20:51;3.67;;;1.70;;
18505;SDS011;9382;53.242;10.438;2023-04-25T10:23:20;5.40;;;1.90;;
18505;SDS011;9382;53.242;10.438;2023-04-25T10:25:47;5.13;;;1.80;;
18505;SDS011;9382;53.242;10.438;2023-04-25T10:28:15;8.63;;;2.30;;
18505;SDS011;9382;53.242;10.438;2023-04-25T10:30:56;7.60;;;2.33;;
18505;SDS011;9382;53.242;10.438;2023-04-25T10:33:29;5.97;;;2.20;;
18505;SDS011;9382;53.242;10.438;2023-04-25T10:35:58;6.10;;;2.00;;
18505;SDS011;9382;53.242;10.438;2023-04-25T10:38:34;8.73;;;2.23;;
18505;SDS011;9382;53.242;10.438;2023-04-25T10:41:05;4.60;;;1.77;;
18505;SDS011;9382;53.242;10.438;2023-04-25T10:43:35;4.93;;;2.13;;
18505;SDS011;9382;53.242;10.438;2023-04-25T10:46:12;5.30;;;1.90;;
18505;SDS011;9382;53.242;10.438;2023-04-25T10:48:43;5.77;;;1.97;;
18505;SDS011;9382;53.242;10.438;2023-04-25T10:51:15;13.37;;;3.00;;
18505;SDS011;9382;53.242;10.438;2023-04-25T10:53:43;7.97;;;2.20;;
18505;SDS011;9382;53.242;10.438;2023-04-25T10:56:11;5.63;;;2.07;;
18505;SDS011;9382;53.242;10.438;2023-04-25T10:58:43;8.07;;;2.20;;
18505;SDS011;9382;53.242;10.438;2023-04-25T11:01:10;5.23;;;1.97;;
18505;SDS011;9382;53.242;10.438;2023-04-25T11:03:40;3.77;;;1.70;;
18505;SDS011;9382;53.242;10.438;2023-04-25T11:06:11;5.47;;;2.10;;
18505;SDS011;9382;53.242;10.438;2023-04-25T11:08:47;7.20;;;1.90;;
18505;SDS011;9382;53.242;10.438;2023-04-25T11:11:15;5.80;;;1.70;;
18505;SDS011;9382;53.242;10.438;2023-04-25T11:13:46;5.87;;;2.13;;
18505;SDS011;9382;53.242;10.438;2023-04-25T11:16:14;5.33;;;1.70;;
18505;SDS011;9382;53.242;10.438;2023-04-25T11:18:41;4.33;;;1.80;;
18505;SDS011;9382;53.242;10.438;2023-04-25T11:21:08;5.47;;;1.77;;
18505;SDS011;9382;53.242;10.438;2023-04-25T11:23:35;7.17;;;1.97;;
18505;SDS011;9382;53.242;10.438;2023-04-25T11:26:02;6.30;;;2.20;;
18505;SDS011;9382;53.242;10.438;2023-04-25T11:28:29;2.30;;;1.50;;
18505;SDS011;9382;53.242;10.438;2023-04-25T11:30:57;4.63;;;1.50;;
18505;SDS011;9382;53.242;10.438;2023-04-25T11:33:24;6.77;;;1.80;;
18505;SDS011;9382;53.242;10.438;2023-04-25T11:35:53;6.63;;;2.10;;
18505;SDS011;9382;53.242;10.438;2023-04-25T11:38:21;6.87;;;2.10;;
18505;SDS011;9382;53.242;10.438;2023-04-25T11:40:51;7.13;;;2.43;;
18505;SDS011;9382;53.242;10.438;2023-04-25T11:43:19;7.87;;;2.30;;
18505;SDS011;9382;53.242;10.438;2023-04-25T11:45:47;7.33;;;2.30;;
18505;SDS011;9382;53.242;10.438;2023-04-25T11:48:17;6.27;;;2.00;;
18505;SDS011;9382;53.242;10.438;2023-04-25T11:50:43;4.90;;;2.00;;
18505;SDS011;9382;53.242;10.438;2023-04-25T11:53:10;5.10;;;2.07;;
18505;SDS011;9382;53.242;10.438;2023-04-25T11:55:38;5.80;;;1.80;;
18505;SDS011;9382;53.242;10.438;2023-04-25T11:58:05;8.13;;;1.80;;
18505;SDS011;9382;53.242;10.438;2023-04-25T12:00:32;4.70;;;1.83;;
18505;SDS011;9382;53.242;10.438;2023-04-25T12:02:59;4.40;;;1.80;;
18505;SDS011;9382;53.242;10.438;2023-04-25T12:05:30;8.03;;;2.10;;
18505;SDS011;9382;53.242;10.438;2023-04-25T12:08:09;5.40;;;2.00;;
18505;SDS011;9382;53.242;10.438;2023-04-25T12:10:39;7.73;;;2.00;;
18505;SDS011;9382;53.242;10.438;2023-04-25T12:15:57;6.33;;;2.10;;
18505;SDS011;9382;53.242;10.438;2023-04-25T12:18:26;5.23;;;1.80;;
18505;SDS011;9382;53.242;10.438;2023-04-25T12:20:54;4.53;;;1.90;;
18505;SDS011;9382;53.242;10.438;2023-04-25T12:23:25;6.90;;;2.17;;
18505;SDS011;9382;53.242;10.438;2023-04-25T12:25:52;6.20;;;2.03;;
18505;SDS011;9382;53.242;10.438;2023-04-25T12:28:20;6.13;;;2.03;;
18505;SDS011;9382;53.242;10.438;2023-04-25T12:30:52;4.70;;;1.80;;
18505;SDS011;9382;53.242;10.438;2023-04-25T12:33:23;5.87;;;1.60;;
18505;SDS011;9382;53.242;10.438;2023-04-25T12:35:51;5.87;;;1.80;;
18505;SDS011;9382;53.242;10.438;2023-04-25T12:38:23;4.10;;;1.60;;
18505;SDS011;9382;53.242;10.438;2023-04-25T12:40:51;5.47;;;2.00;;
18505;SDS011;9382;53.242;10.438;2023-04-25T12:43:18;4.57;;;1.40;;
18505;SDS011;9382;53.242;10.438;2023-04-25T12:45:45;4.03;;;1.70;;
18505;SDS011;9382;53.242;10.438;2023-04-25T12:48:14;5.00;;;1.40;;
18505;SDS011;9382;53.242;10.438;2023-04-25T12:50:40;6.20;;;1.50;;
18505;SDS011;9382;53.242;10.438;2023-04-25T12:53:07;8.23;;;1.70;;
18505;SDS011;9382;53.242;10.438;2023-04-25T12:55:35;4.77;;;1.83;;
18505;SDS011;9382;53.242;10.438;2023-04-25T12:58:02;5.27;;;1.60;;
18505;SDS011;9382;53.242;10.438;2023-04-25T13:00:29;6.67;;;1.80;;
18505;SDS011;9382;53.242;10.438;2023-04-25T13:02:56;6.53;;;1.90;;
18505;SDS011;9382;53.242;10.438;2023-04-25T13:05:23;8.00;;;1.80;;
18505;SDS011;9382;53.242;10.438;2023-04-25T13:07:50;6.53;;;2.10;;
18505;SDS011;9382;53.242;10.438;2023-04-25T13:10:17;7.07;;;2.03;;
18505;SDS011;9382;53.242;10.438;2023-04-25T13:12:45;5.37;;;1.80;;
18505;SDS011;9382;53.242;10.438;2023-04-25T13:15:12;4.07;;;1.60;;
18505;SDS011;9382;53.242;10.438;2023-04-25T13:17:40;5.13;;;1.73;;
18505;SDS011;9382;53.242;10.438;2023-04-25T13:20:08;6.97;;;1.83;;
18505;SDS011;9382;53.242;10.438;2023-04-25T13:22:35;7.30;;;1.70;;
18505;SDS011;9382;53.242;10.438;2023-04-25T13:25:03;5.40;;;1.67;;
18505;SDS011;9382;53.242;10.438;2023-04-25T13:27:30;5.27;;;1.57;;
18505;SDS011;9382;53.242;10.438;2023-04-25T13:30:00;2.53;;;1.73;;
18505;SDS011;9382;53.242;10.438;2023-04-25T13:32:32;7.67;;;1.93;;
18505;SDS011;9382;53.242;10.438;2023-04-25T13:34:58;6.97;;;1.83;;
18505;SDS011;9382;53.242;10.438;2023-04-25T13:37:25;6.43;;;1.63;;
18505;SDS011;9382;53.242;10.438;2023-04-25T13:39:52;3.93;;;1.90;;
18505;SDS011;9382;53.242;10.438;2023-04-25T13:42:20;4.80;;;1.80;;
18505;SDS011;9382;53.242;10.438;2023-04-25T13:44:47;3.30;;;1.40;;
18505;SDS011;9382;53.242;10.438;2023-04-25T13:47:15;5.73;;;1.60;;
18505;SDS011;9382;53.242;10.438;2023-04-25T13:49:42;3.90;;;1.50;;
18505;SDS011;9382;53.242;10.438;2023-04-25T13:52:08;4.40;;;1.57;;
18505;SDS011;9382;53.242;10.438;2023-04-25T13:54:35;4.20;;;1.50;;
18505;SDS011;9382;53.242;10.438;2023-04-25T13:57:02;3.00;;;1.40;;
18505;SDS011;9382;53.242;10.438;2023-04-25T13:59:29;2.23;;;1.30;;
18505;SDS011;9382;53.242;10.438;2023-04-25T14:01:56;3.57;;;1.50;;
18505;SDS011;9382;53.242;10.438;2023-04-25T14:04:24;4.40;;;1.70;;
18505;SDS011;9382;53.242;10.438;2023-04-25T14:06:51;4.80;;;1.50;;
18505;SDS011;9382;53.242;10.438;2023-04-25T14:09:18;3.67;;;1.30;;
18505;SDS011;9382;53.242;10.438;2023-04-25T14:11:47;5.53;;;1.63;;
18505;SDS011;9382;53.242;10.438;2023-04-25T14:14:14;3.47;;;1.30;;
18505;SDS011;9382;53.242;10.438;2023-04-25T14:16:41;4.63;;;1.70;;
18505;SDS011;9382;53.242;10.438;2023-04-25T14:19:08;4.73;;;1.60;;
18505;SDS011;9382;53.242;10.438;2023-04-25T14:21:36;4.37;;;1.40;;
18505;SDS011;9382;53.242;10.438;2023-04-25T14:24:02;8.77;;;1.80;;
18505;SDS011;9382;53.242;10.438;2023-04-25T14:26:30;4.57;;;1.60;;
18505;SDS011;9382;53.242;10.438;2023-04-25T14:28:56;5.83;;;1.80;;
18505;SDS011;9382;53.242;10.438;2023-04-25T14:31:23;8.97;;;1.97;;
18505;SDS011;9382;53.242;10.438;2023-04-25T14:33:50;8.37;;;2.17;;
18505;SDS011;9382;53.242;10.438;2023-04-25T14:36:17;7.53;;;2.03;;
18505;SDS011;9382;53.242;10.438;2023-04-25T14:38:45;7.00;;;2.03;;
18505;SDS011;9382;53.242;10.438;2023-04-25T14:41:12;7.17;;;2.10;;
18505;SDS011;9382;53.242;10.438;2023-04-25T14:43:38;7.03;;;2.47;;